createdAt,value
2018-05-16T00:00:09.645Z,91.00
2018-05-16T00:02:36.203Z,91.10
2018-05-16T00:05:04.549Z,91.20
2018-05-16T00:07:30.988Z,91.20
2018-05-16T00:09:57.353Z,91.50
2018-05-16T00:12:23.546Z,91.80
2018-05-16T00:14:50.734Z,92.10
2018-05-16T00:17:16.922Z,92.20
2018-05-16T00:19:43.594Z,92.30
2018-05-16T00:22:09.786Z,92.20
2018-05-16T00:24:35.920Z,92.10
2018-05-16T00:27:02.181Z,92.00
2018-05-16T00:29:28.595Z,92.00
2018-05-16T00:31:55.362Z,91.90
2018-05-16T00:34:21.777Z,91.80
2018-05-16T00:36:48.011Z,91.70
2018-05-16T00:39:14.140Z,91.70
2018-05-16T00:41:41.126Z,91.60
2018-05-16T00:44:07.263Z,91.60
2018-05-16T00:46:33.808Z,91.60
2018-05-16T00:49:00.201Z,91.40
2018-05-16T00:51:30.349Z,91.40
2018-05-16T00:53:56.733Z,91.50
2018-05-16T00:56:23.009Z,91.70
2018-05-16T00:58:49.267Z,91.70
2018-05-16T01:01:15.916Z,91.60
2018-05-16T01:03:42.408Z,91.60
2018-05-16T01:06:08.808Z,91.00
2018-05-16T01:08:35.061Z,90.60
2018-05-16T01:11:02.260Z,90.10
2018-05-16T01:13:35.023Z,88.10
2018-05-16T01:16:01.584Z,88.40
2018-05-16T01:18:27.802Z,88.80
2018-05-16T01:20:57.795Z,88.20
2018-05-16T01:23:23.908Z,87.90
2018-05-16T01:25:50.224Z,87.80
2018-05-16T01:28:16.365Z,87.60
2018-05-16T01:30:42.814Z,87.60
2018-05-16T01:33:09.384Z,88.20
2018-05-16T01:35:35.594Z,88.30
2018-05-16T01:38:19.596Z,88.00
2018-05-16T01:40:45.802Z,88.40
2018-05-16T01:43:12.725Z,88.50
2018-05-16T01:45:38.897Z,88.40
2018-05-16T01:48:05.560Z,89.00
2018-05-16T01:50:31.887Z,88.50
2018-05-16T01:52:58.098Z,88.00
2018-05-16T01:55:24.378Z,88.70
2018-05-16T01:57:50.554Z,88.50
2018-05-16T02:00:17.506Z,88.10
2018-05-16T02:02:43.704Z,88.10
2018-05-16T02:05:10.265Z,87.90
2018-05-16T02:07:36.453Z,88.00
2018-05-16T02:10:02.650Z,88.50
2018-05-16T02:12:29.855Z,89.10
2018-05-16T02:14:56.369Z,90.30
2018-05-16T02:17:26.433Z,90.30
2018-05-16T02:19:52.836Z,90.10
2018-05-16T02:22:19.086Z,90.00
2018-05-16T02:24:45.290Z,89.70
2018-05-16T02:27:12.244Z,90.00
2018-05-16T02:29:38.414Z,89.50
2018-05-16T02:32:05.322Z,89.70
2018-05-16T02:37:04.604Z,88.10
2018-05-16T02:39:30.823Z,88.00
2018-05-16T02:41:57.814Z,89.20
2018-05-16T02:44:24.041Z,89.20
2018-05-16T02:46:50.273Z,89.80
2018-05-16T02:49:18.354Z,90.00
2018-05-16T02:51:44.741Z,90.20
2018-05-16T02:54:10.932Z,90.00
2018-05-16T02:56:37.234Z,88.90
2018-05-16T02:59:11.144Z,87.70
2018-05-16T03:01:38.462Z,87.90
2018-05-16T03:04:05.082Z,87.60
2018-05-16T03:06:33.093Z,87.30
2018-05-16T03:08:59.364Z,87.40
2018-05-16T03:11:25.679Z,87.60
2018-05-16T03:13:52.291Z,87.10
2018-05-16T03:16:19.526Z,87.10
2018-05-16T03:18:46.147Z,87.10
2018-05-16T03:21:12.726Z,87.10
2018-05-16T03:23:41.945Z,86.50
2018-05-16T03:26:08.176Z,87.00
2018-05-16T03:28:34.604Z,86.20
2018-05-16T03:31:01.928Z,86.10
2018-05-16T03:33:28.377Z,86.50
2018-05-16T03:35:54.845Z,86.00
2018-05-16T03:38:26.663Z,86.10
2018-05-16T03:40:53.182Z,86.30
2018-05-16T03:43:22.834Z,86.80
2018-05-16T03:45:49.288Z,86.40
2018-05-16T03:48:15.659Z,85.80
2018-05-16T03:50:42.290Z,86.50
2018-05-16T03:53:08.988Z,87.70
2018-05-16T03:55:35.173Z,88.80
2018-05-16T03:58:22.843Z,89.90
2018-05-16T04:01:02.494Z,88.60
2018-05-16T04:03:41.065Z,88.60
2018-05-16T04:06:07.368Z,88.50
2018-05-16T04:08:33.528Z,88.90
2018-05-16T04:11:00.054Z,88.50
2018-05-16T04:13:26.279Z,87.80
2018-05-16T04:15:52.624Z,86.90
2018-05-16T04:18:18.975Z,86.70
2018-05-16T04:20:53.308Z,86.10
2018-05-16T04:23:19.521Z,87.40
2018-05-16T04:25:46.995Z,87.80
2018-05-16T04:28:13.257Z,87.70
2018-05-16T04:30:39.463Z,88.50
2018-05-16T04:33:05.651Z,89.10
2018-05-16T04:35:43.069Z,89.80
2018-05-16T04:38:09.696Z,90.10
2018-05-16T04:40:37.118Z,90.00
2018-05-16T04:43:04.041Z,90.00
2018-05-16T04:45:31.579Z,90.20
2018-05-16T04:47:58.033Z,88.50
2018-05-16T04:50:24.164Z,87.90
2018-05-16T04:52:50.357Z,87.60
2018-05-16T04:55:33.654Z,86.30
2018-05-16T05:01:15.170Z,84.90
2018-05-16T05:03:41.401Z,84.30
2018-05-16T05:06:08.342Z,84.30
2018-05-16T05:08:34.573Z,84.30
2018-05-16T05:11:00.816Z,83.90
2018-05-16T05:13:34.367Z,83.00
2018-05-16T05:16:01.866Z,82.60
2018-05-16T05:18:36.853Z,82.90
2018-05-16T05:21:03.039Z,82.90
2018-05-16T05:23:29.494Z,83.50
2018-05-16T05:25:55.747Z,83.30
2018-05-16T05:28:21.964Z,82.80
2018-05-16T05:30:49.369Z,82.30
2018-05-16T05:33:15.559Z,82.10
2018-05-16T05:35:47.907Z,82.10
2018-05-16T05:41:07.090Z,83.10
2018-05-16T05:43:33.291Z,85.30
2018-05-16T05:46:02.334Z,84.90
2018-05-16T05:48:28.553Z,84.80
2018-05-16T05:51:08.366Z,85.90
2018-05-16T05:54:00.721Z,85.90
2018-05-16T05:56:27.374Z,84.40
2018-05-16T05:58:53.577Z,85.90
2018-05-16T06:01:24.011Z,86.40
2018-05-16T06:03:52.742Z,86.90
2018-05-16T06:06:19.011Z,87.40
2018-05-16T06:08:45.592Z,87.80
2018-05-16T06:11:12.294Z,88.10
2018-05-16T06:13:38.721Z,88.10
2018-05-16T06:16:05.154Z,88.50
2018-05-16T06:18:32.119Z,88.70
2018-05-16T06:20:59.560Z,87.70
2018-05-16T06:23:26.124Z,86.40
2018-05-16T06:25:52.515Z,85.30
2018-05-16T06:28:19.934Z,85.00
2018-05-16T06:30:46.271Z,84.30
2018-05-16T06:33:12.924Z,82.90
2018-05-16T06:35:39.259Z,81.80
2018-05-16T06:40:37.909Z,80.50
2018-05-16T06:43:04.289Z,80.30
2018-05-16T06:45:30.622Z,79.70
2018-05-16T06:47:57.286Z,81.10
2018-05-16T06:50:23.609Z,80.30
2018-05-16T06:52:50.073Z,79.10
2018-05-16T06:55:16.371Z,79.10
2018-05-16T06:57:42.980Z,81.00
2018-05-16T07:00:09.377Z,81.90
2018-05-16T07:05:15.299Z,79.60
2018-05-16T07:07:41.465Z,78.90
2018-05-16T07:10:07.767Z,78.80
2018-05-16T07:12:34.138Z,78.80
2018-05-16T07:15:00.630Z,77.80
2018-05-16T07:17:26.846Z,77.30
2018-05-16T07:19:53.195Z,77.60
2018-05-16T07:22:19.487Z,77.00
2018-05-16T07:24:45.985Z,76.30
2018-05-16T07:27:13.033Z,76.00
2018-05-16T07:29:43.856Z,76.00
2018-05-16T07:32:12.157Z,75.00
2018-05-16T07:34:41.342Z,74.20
2018-05-16T07:37:07.678Z,74.20
2018-05-16T07:39:34.925Z,74.30
2018-05-16T07:42:01.486Z,73.70
2018-05-16T07:44:27.862Z,73.90
2018-05-16T07:46:54.215Z,73.40
2018-05-16T07:49:23.521Z,73.70
2018-05-16T07:51:49.901Z,74.30
2018-05-16T07:54:16.552Z,75.00
2018-05-16T07:56:42.959Z,76.30
2018-05-16T07:59:09.763Z,76.30
2018-05-16T08:01:37.164Z,76.80
2018-05-16T08:04:03.364Z,76.80
2018-05-16T08:06:31.119Z,76.70
2018-05-16T08:09:01.406Z,76.50
2018-05-16T08:11:41.600Z,77.10
2018-05-16T08:14:09.191Z,77.20
2018-05-16T08:16:40.357Z,77.10
2018-05-16T08:19:15.878Z,77.30
2018-05-16T08:21:42.659Z,77.30
2018-05-16T08:24:10.176Z,76.80
2018-05-16T08:26:40.741Z,77.40
2018-05-16T08:29:10.406Z,79.00
2018-05-16T08:31:38.626Z,80.10
2018-05-16T08:34:05.149Z,80.00
2018-05-16T08:36:31.590Z,80.00
2018-05-16T08:38:57.989Z,80.50
2018-05-16T08:41:24.251Z,80.10
2018-05-16T08:43:50.802Z,81.90
2018-05-16T08:46:17.336Z,83.30
2018-05-16T08:48:43.789Z,83.80
2018-05-16T08:51:10.337Z,85.20
2018-05-16T08:53:36.646Z,86.30
2018-05-16T08:56:02.959Z,86.10
2018-05-16T08:58:30.619Z,86.70
2018-05-16T09:03:29.933Z,87.70
2018-05-16T09:05:56.382Z,85.90
2018-05-16T09:08:23.467Z,85.00
2018-05-16T09:10:49.791Z,83.40
2018-05-16T09:13:20.573Z,82.70
2018-05-16T09:15:50.904Z,82.80
2018-05-16T09:18:17.468Z,83.90
2018-05-16T09:20:47.017Z,84.70
2018-05-16T09:23:13.242Z,84.80
2018-05-16T09:25:39.668Z,84.30
2018-05-16T09:28:06.081Z,84.20
2018-05-16T09:30:44.021Z,83.10
2018-05-16T09:33:14.198Z,82.50
2018-05-16T09:35:41.989Z,82.10
2018-05-16T09:38:08.243Z,81.60
2018-05-16T09:40:34.700Z,83.10
2018-05-16T09:43:01.738Z,82.70
2018-05-16T09:45:28.557Z,81.90
2018-05-16T09:47:54.865Z,81.30
2018-05-16T09:50:23.987Z,82.20
2018-05-16T09:52:50.371Z,83.70
2018-05-16T09:55:34.362Z,84.20
2018-05-16T09:58:06.743Z,84.70
2018-05-16T10:00:34.372Z,84.40
2018-05-16T10:03:00.699Z,85.20
2018-05-16T10:05:27.197Z,85.00
2018-05-16T10:08:02.097Z,84.80
2018-05-16T10:10:28.840Z,85.90
2018-05-16T10:12:56.113Z,87.10
2018-05-16T10:15:27.225Z,87.50
2018-05-16T10:17:55.521Z,85.40
2018-05-16T10:20:22.460Z,85.10
2018-05-16T10:22:48.776Z,85.00
2018-05-16T10:25:18.871Z,85.60
2018-05-16T10:27:45.211Z,85.70
2018-05-16T10:30:11.701Z,85.50
2018-05-16T10:32:40.458Z,84.60
2018-05-16T10:35:07.576Z,85.20
2018-05-16T10:37:33.883Z,85.20
2018-05-16T10:40:06.318Z,83.10
2018-05-16T10:42:32.669Z,84.20
2018-05-16T10:44:58.929Z,84.50
2018-05-16T10:47:25.270Z,83.90
2018-05-16T10:49:58.250Z,84.00
2018-05-16T10:52:24.472Z,83.20
2018-05-16T10:54:50.655Z,83.60
2018-05-16T10:57:17.523Z,84.60
2018-05-16T10:59:43.812Z,84.60
2018-05-16T11:04:43.603Z,83.20
2018-05-16T11:07:10.764Z,83.40
2018-05-16T11:09:37.716Z,84.70
2018-05-16T11:12:06.025Z,84.60
2018-05-16T11:14:34.324Z,83.70
2018-05-16T11:17:00.497Z,83.70
2018-05-16T11:19:26.680Z,82.30
2018-05-16T11:21:52.967Z,83.60
2018-05-16T11:24:19.162Z,82.20
2018-05-16T11:26:45.351Z,83.50
2018-05-16T11:29:12.514Z,84.50
2018-05-16T11:31:38.846Z,84.10
2018-05-16T11:34:05.853Z,85.60
2018-05-16T11:36:32.218Z,85.70
2018-05-16T11:39:01.199Z,85.60
2018-05-16T11:41:27.423Z,85.40
2018-05-16T11:43:53.611Z,84.40
2018-05-16T11:46:19.750Z,85.30
2018-05-16T11:48:45.922Z,86.20
2018-05-16T11:51:16.559Z,84.80
2018-05-16T11:56:42.730Z,83.20
2018-05-16T12:01:58.994Z,84.60
2018-05-16T12:04:25.281Z,85.20
2018-05-16T12:06:57.135Z,85.50
2018-05-16T12:09:23.369Z,85.10
2018-05-16T12:11:49.787Z,85.70
2018-05-16T12:14:16.047Z,85.40
2018-05-16T12:16:42.338Z,84.90
2018-05-16T12:19:08.836Z,84.00
2018-05-16T12:21:35.177Z,84.30
2018-05-16T12:24:01.562Z,84.00
2018-05-16T12:26:28.607Z,85.00
2018-05-16T12:28:56.005Z,84.90
2018-05-16T12:31:22.226Z,83.80
2018-05-16T12:33:48.432Z,82.80
2018-05-16T12:36:15.423Z,82.90
2018-05-16T12:38:41.641Z,82.90
2018-05-16T12:41:09.002Z,84.80
2018-05-16T12:43:35.274Z,84.80
2018-05-16T12:46:01.520Z,85.90
2018-05-16T12:48:27.613Z,85.10
2018-05-16T12:50:53.773Z,84.80
2018-05-16T12:53:20.672Z,84.30
2018-05-16T12:55:46.951Z,84.30
2018-05-16T12:58:13.811Z,83.30
2018-05-16T13:00:40.669Z,82.20
2018-05-16T13:03:06.852Z,81.80
2018-05-16T13:05:33.036Z,79.90
2018-05-16T13:07:59.176Z,80.70
2018-05-16T13:10:25.314Z,81.30
2018-05-16T13:12:51.471Z,82.10
2018-05-16T13:15:17.582Z,82.40
2018-05-16T13:17:43.714Z,81.20
2018-05-16T13:20:10.596Z,80.50
2018-05-16T13:22:36.746Z,81.20
2018-05-16T13:25:03.002Z,80.90
2018-05-16T13:27:29.854Z,80.60
2018-05-16T13:29:56.817Z,78.20
2018-05-16T13:32:23.149Z,78.10
2018-05-16T13:34:49.388Z,77.70
2018-05-16T13:37:15.618Z,76.00
2018-05-16T13:39:41.770Z,75.00
2018-05-16T13:42:14.928Z,75.10
2018-05-16T13:44:41.068Z,75.40
2018-05-16T13:47:07.250Z,74.90
2018-05-16T13:49:33.358Z,74.70
2018-05-16T13:51:59.597Z,75.60
2018-05-16T13:54:26.581Z,74.40
2018-05-16T13:56:52.754Z,74.40
2018-05-16T13:59:18.910Z,72.80
2018-05-16T14:01:45.258Z,72.50
2018-05-16T14:04:11.443Z,72.00
2018-05-16T14:06:39.829Z,72.60
2018-05-16T14:09:06.135Z,71.20
2018-05-16T14:11:32.252Z,71.50
2018-05-16T14:13:58.482Z,70.70
2018-05-16T14:16:24.716Z,68.90
2018-05-16T14:18:50.917Z,68.90
2018-05-16T14:21:17.134Z,69.70
2018-05-16T14:23:43.371Z,69.80
2018-05-16T14:26:09.841Z,70.60
2018-05-16T14:28:36.114Z,70.70
2018-05-16T14:31:02.187Z,70.30
2018-05-16T14:33:31.188Z,69.70
2018-05-16T14:35:57.518Z,70.30
2018-05-16T14:38:23.915Z,70.50
2018-05-16T14:40:50.283Z,70.60
2018-05-16T14:43:16.469Z,70.30
2018-05-16T14:45:42.774Z,69.20
2018-05-16T14:48:11.026Z,69.00
2018-05-16T14:50:37.232Z,69.90
2018-05-16T14:53:04.337Z,69.30
2018-05-16T14:55:30.649Z,69.30
2018-05-16T14:57:57.073Z,70.40
2018-05-16T15:00:23.621Z,69.30
2018-05-16T15:02:50.089Z,69.50
2018-05-16T15:05:16.775Z,69.00
2018-05-16T15:07:43.459Z,68.40
2018-05-16T15:10:10.703Z,67.30
2018-05-16T15:12:36.993Z,68.80
2018-05-16T15:15:03.351Z,68.90
2018-05-16T15:17:29.592Z,68.50
2018-05-16T15:19:55.840Z,67.10
2018-05-16T15:22:22.522Z,67.30
2018-05-16T15:24:49.036Z,68.00
2018-05-16T15:27:15.362Z,66.30
2018-05-16T15:29:42.840Z,68.20
2018-05-16T15:32:10.600Z,68.20
2018-05-16T15:34:37.784Z,68.00
2018-05-16T15:37:04.170Z,68.00
2018-05-16T15:39:30.414Z,67.60
2018-05-16T15:41:56.775Z,67.40
2018-05-16T15:44:23.431Z,67.30
2018-05-16T15:46:50.495Z,67.50
2018-05-16T15:49:16.907Z,67.60
2018-05-16T15:51:43.276Z,68.40
2018-05-16T15:54:09.526Z,68.20
2018-05-16T15:56:35.795Z,69.60
2018-05-16T15:59:03.709Z,70.30
2018-05-16T16:01:30.978Z,70.60
2018-05-16T16:03:58.234Z,71.60
2018-05-16T16:06:25.867Z,70.70
2018-05-16T16:08:52.273Z,70.60
2018-05-16T16:11:18.530Z,70.00
2018-05-16T16:13:45.538Z,71.90
2018-05-16T16:16:11.767Z,71.90
2018-05-16T16:18:38.105Z,72.50
2018-05-16T16:21:04.725Z,73.10
2018-05-16T16:23:31.058Z,73.00
2018-05-16T16:25:57.263Z,73.00
2018-05-16T16:28:23.516Z,71.50
2018-05-16T16:30:49.772Z,68.70
2018-05-16T16:33:17.032Z,70.10
2018-05-16T16:35:43.270Z,70.10
2018-05-16T16:38:09.694Z,71.90
2018-05-16T16:40:36.752Z,70.90
2018-05-16T16:43:03.092Z,70.90
2018-05-16T16:45:29.740Z,71.70
2018-05-16T16:47:55.892Z,72.50
2018-05-16T16:50:22.476Z,73.50
2018-05-16T16:52:48.957Z,75.10
2018-05-16T16:55:15.866Z,76.00
2018-05-16T16:57:42.383Z,76.30
2018-05-16T17:00:09.475Z,76.10
2018-05-16T17:02:36.073Z,76.10
2018-05-16T17:05:02.711Z,76.40
2018-05-16T17:07:29.206Z,76.50
2018-05-16T17:09:55.403Z,76.60
2018-05-16T17:12:21.995Z,76.90
2018-05-16T17:14:48.393Z,77.70
2018-05-16T17:17:14.635Z,78.70
2018-05-16T17:19:40.852Z,78.60
2018-05-16T17:22:07.768Z,79.10
2018-05-16T17:24:34.026Z,78.60
2018-05-16T17:27:00.331Z,79.00
2018-05-16T17:29:27.390Z,80.00
2018-05-16T17:31:53.620Z,80.40
2018-05-16T17:34:19.768Z,80.40
2018-05-16T17:36:45.918Z,80.20
2018-05-16T17:39:12.501Z,80.70
2018-05-16T17:41:38.642Z,81.60
2018-05-16T17:44:04.950Z,82.30
2018-05-16T17:46:31.311Z,82.70
2018-05-16T17:48:57.724Z,83.40
2018-05-16T17:51:23.898Z,85.60
2018-05-16T17:53:50.213Z,86.50
2018-05-16T17:56:16.350Z,87.30
2018-05-16T17:58:43.522Z,88.40
2018-05-16T18:01:09.867Z,88.30
2018-05-16T18:03:36.014Z,88.80
2018-05-16T18:06:02.256Z,88.60
2018-05-16T18:08:28.373Z,88.60
2018-05-16T18:10:55.424Z,88.30
2018-05-16T18:13:51.560Z,88.20
2018-05-16T18:16:30.082Z,88.60
2018-05-16T18:18:56.626Z,89.80
2018-05-16T18:21:22.869Z,90.20
2018-05-16T18:23:49.846Z,89.40
2018-05-16T18:26:16.073Z,89.40
2018-05-16T18:28:42.256Z,90.00
2018-05-16T18:31:09.150Z,89.90
2018-05-16T18:33:35.428Z,89.90
2018-05-16T18:36:01.707Z,90.00
2018-05-16T18:38:27.921Z,89.80
2018-05-16T18:40:54.129Z,90.00
2018-05-16T18:43:20.350Z,90.50
2018-05-16T18:45:47.391Z,90.50
2018-05-16T18:48:13.574Z,90.50
2018-05-16T18:50:39.756Z,90.50
2018-05-16T18:53:05.927Z,90.30
2018-05-16T18:55:32.190Z,90.40
2018-05-16T18:57:58.434Z,90.40
2018-05-16T19:00:25.467Z,90.40
2018-05-16T19:02:51.668Z,90.30
2018-05-16T19:05:17.865Z,90.00
2018-05-16T19:07:44.004Z,89.70
2018-05-16T19:10:10.907Z,89.50
2018-05-16T19:12:37.133Z,90.10
2018-05-16T19:15:03.356Z,90.20
2018-05-16T19:17:30.384Z,89.90
2018-05-16T19:19:58.202Z,89.90
2018-05-16T19:22:25.060Z,89.60
2018-05-16T19:24:51.320Z,89.50
2018-05-16T19:27:18.382Z,90.00
2018-05-16T19:29:44.732Z,89.90
2018-05-16T19:32:11.192Z,90.00
2018-05-16T19:34:37.946Z,90.10
2018-05-16T19:37:09.407Z,90.10
2018-05-16T19:39:35.543Z,90.00
2018-05-16T19:42:01.898Z,90.10
2018-05-16T19:44:29.282Z,90.60
2018-05-16T19:46:55.874Z,90.90
2018-05-16T19:49:22.182Z,91.00
2018-05-16T19:51:49.368Z,90.90
2018-05-16T19:54:15.507Z,91.10
2018-05-16T19:56:41.693Z,91.00
2018-05-16T19:59:07.995Z,90.90
2018-05-16T20:01:34.564Z,90.50
2018-05-16T20:04:01.333Z,90.30
2018-05-16T20:06:28.221Z,90.00
2018-05-16T20:08:54.630Z,89.60
2018-05-16T20:11:20.910Z,89.30
2018-05-16T20:13:47.184Z,89.40
2018-05-16T20:16:13.308Z,89.80
2018-05-16T20:18:39.492Z,89.70
2018-05-16T20:21:07.888Z,89.80
2018-05-16T20:23:34.095Z,90.10
2018-05-16T20:26:00.247Z,90.30
2018-05-16T20:28:26.713Z,90.20
2018-05-16T20:30:52.840Z,90.40
2018-05-16T20:33:19.231Z,90.40
2018-05-16T20:35:45.383Z,89.80
2018-05-16T20:38:11.541Z,89.20
2018-05-16T20:40:37.849Z,88.90
2018-05-16T20:43:04.003Z,87.70
2018-05-16T20:45:30.527Z,88.20
2018-05-16T20:47:56.898Z,88.30
2018-05-16T20:50:22.954Z,88.00
2018-05-16T20:52:49.097Z,88.30
2018-05-16T20:55:15.190Z,88.20
2018-05-16T20:57:41.349Z,87.90
2018-05-16T21:00:07.500Z,88.20
2018-05-16T21:02:33.881Z,88.50
2018-05-16T21:05:00.045Z,88.50
2018-05-16T21:07:26.159Z,89.00
2018-05-16T21:09:52.298Z,89.50
2018-05-16T21:12:18.508Z,89.90
2018-05-16T21:14:44.680Z,90.00
2018-05-16T21:17:11.041Z,90.00
2018-05-16T21:19:37.267Z,90.20
2018-05-16T21:22:05.857Z,90.30
2018-05-16T21:24:32.018Z,90.20
2018-05-16T21:26:58.168Z,90.10
2018-05-16T21:29:25.081Z,90.00
2018-05-16T21:31:51.316Z,90.00
2018-05-16T21:34:17.486Z,90.00
2018-05-16T21:36:43.708Z,90.40
2018-05-16T21:39:10.970Z,90.70
2018-05-16T21:41:37.852Z,90.90
2018-05-16T21:44:04.442Z,90.90
2018-05-16T21:46:30.661Z,91.20
2018-05-16T21:48:57.672Z,91.50
2018-05-16T21:51:25.209Z,91.40
2018-05-16T21:53:51.437Z,91.50
2018-05-16T21:56:17.656Z,91.60
2018-05-16T21:58:43.890Z,91.60
2018-05-16T22:01:10.118Z,91.60
2018-05-16T22:03:36.855Z,91.50
2018-05-16T22:06:03.236Z,91.20
2018-05-16T22:08:29.663Z,91.00
2018-05-16T22:10:56.226Z,90.80
2018-05-16T22:13:22.533Z,90.80
2018-05-16T22:15:48.791Z,91.20
2018-05-16T22:18:15.236Z,91.70
2018-05-16T22:20:41.484Z,91.70
2018-05-16T22:23:07.678Z,91.50
2018-05-16T22:25:34.329Z,91.70
2018-05-16T22:28:00.545Z,92.10
2018-05-16T22:30:32.732Z,92.30
2018-05-16T22:33:05.092Z,92.30
2018-05-16T22:35:37.651Z,92.30
2018-05-16T22:38:10.668Z,92.00
2018-05-16T22:40:43.285Z,92.10
2018-05-16T22:43:09.591Z,92.00
2018-05-16T22:45:36.698Z,91.90
2018-05-16T22:48:02.824Z,91.90
2018-05-16T22:50:29.185Z,92.10
2018-05-16T22:52:55.608Z,92.10
2018-05-16T22:55:22.017Z,92.20
2018-05-16T22:57:48.182Z,92.10
2018-05-16T23:00:17.494Z,91.90
2018-05-16T23:02:43.643Z,92.10
2018-05-16T23:05:11.049Z,92.60
2018-05-16T23:07:37.905Z,92.60
2018-05-16T23:10:04.056Z,92.80
2018-05-16T23:12:30.836Z,93.00
2018-05-16T23:14:57.657Z,93.40
2018-05-16T23:17:24.157Z,93.40
2018-05-16T23:19:50.591Z,93.50
2018-05-16T23:22:16.779Z,93.20
2018-05-16T23:24:42.977Z,93.20
2018-05-16T23:27:09.167Z,92.80
2018-05-16T23:29:35.485Z,92.60
2018-05-16T23:32:01.766Z,92.60
2018-05-16T23:34:27.913Z,92.40
2018-05-16T23:36:54.097Z,91.90
2018-05-16T23:39:20.522Z,92.00
2018-05-16T23:41:46.703Z,91.60
2018-05-16T23:44:12.819Z,91.40
2018-05-16T23:46:38.951Z,91.50
2018-05-16T23:49:05.067Z,91.70
2018-05-16T23:51:31.427Z,92.20
2018-05-16T23:53:57.549Z,92.40
2018-05-16T23:56:23.732Z,92.80
2018-05-16T23:58:49.847Z,93.40
